Time;durP1;ratioP1;P1;durP2;ratioP2;P2;SDS_P1;SDS_P2;PMS_P1;PMS_P2;Temp;Humidity;BMP_temperature;BMP_pressure;BME280_temperature;BME280_humidity;BME280_pressure;Samples;Min_cycle;Max_cycle;Signal;HPM_P1;HPM_P2
2023/02/17 00:01:21;;;;;;;38.05;25.40;;;9.70;99.90;;;;;;7373141;19;20446;-63
2023/02/17 00:03:49;;;;;;;43.03;26.50;;;9.80;99.90;;;;;;7374653;19;20401;-63
2023/02/17 00:06:17;;;;;;;42.75;26.90;;;9.70;99.90;;;;;;7374103;19;20120;-63
2023/02/17 00:08:44;;;;;;;50.17;30.50;;;9.70;99.90;;;;;;7369328;19;20038;-63
2023/02/17 00:11:20;;;;;;;47.85;29.65;;;9.70;99.90;;;;;;7373435;19;20015;-63
2023/02/17 00:13:46;;;;;;;52.67;30.65;;;9.80;99.90;;;;;;7368123;19;20119;-63
2023/02/17 00:16:22;;;;;;;49.05;29.65;;;9.70;99.90;;;;;;7372830;19;20026;-63
2023/02/17 00:18:56;;;;;;;50.72;30.23;;;9.70;99.90;;;;;;7369887;19;20014;-63
2023/02/17 00:21:24;;;;;;;49.97;29.23;;;9.80;99.90;;;;;;7378517;19;20082;-63
2023/02/17 00:23:51;;;;;;;55.83;30.90;;;9.80;99.90;;;;;;7372489;19;20025;-63
2023/02/17 00:26:19;;;;;;;49.88;30.27;;;9.70;99.90;;;;;;7377135;19;20015;-63
2023/02/17 00:28:46;;;;;;;56.13;32.95;;;9.70;99.90;;;;;;7373959;19;20022;-63
2023/02/17 00:31:21;;;;;;;58.40;33.40;;;9.80;99.90;;;;;;7374179;19;20366;-63
2023/02/17 00:33:48;;;;;;;58.58;34.35;;;9.70;99.90;;;;;;7374738;19;20491;-63
2023/02/17 00:36:17;;;;;;;60.33;33.10;;;9.80;99.90;;;;;;7372248;19;20010;-63
2023/02/17 00:38:45;;;;;;;66.47;34.45;;;9.70;99.90;;;;;;7375450;19;20023;-63
2023/02/17 00:41:11;;;;;;;61.53;34.63;;;9.70;99.90;;;;;;7370989;19;20041;-64
2023/02/17 00:43:38;;;;;;;69.22;37.20;;;9.80;99.90;;;;;;7372428;19;20022;-64
2023/02/17 00:46:05;;;;;;;66.45;36.13;;;9.70;99.90;;;;;;7374047;19;20041;-64
2023/02/17 00:48:31;;;;;;;65.90;35.03;;;9.70;99.90;;;;;;7374187;19;20018;-64
2023/02/17 00:50:58;;;;;;;66.88;35.55;;;9.70;99.90;;;;;;7373231;19;20024;-64
2023/02/17 00:53:26;;;;;;;73.20;39.03;;;9.70;99.90;;;;;;7374022;19;20018;-64
2023/02/17 00:55:52;;;;;;;70.65;39.63;;;9.70;99.90;;;;;;7372152;19;20019;-64
2023/02/17 00:58:19;;;;;;;69.32;37.00;;;9.70;99.90;;;;;;7374126;19;20018;-64
2023/02/17 01:00:45;;;;;;;72.65;38.67;;;9.70;99.90;;;;;;7370455;19;20548;-64
2023/02/17 01:03:12;;;;;;;69.63;38.13;;;9.80;99.90;;;;;;7375905;19;20033;-64
2023/02/17 01:05:43;;;;;;;77.18;41.10;;;9.70;99.90;;;;;;7373367;19;20610;-64
2023/02/17 01:08:22;;;;;;;69.38;39.08;;;9.80;99.90;;;;;;7372931;19;20018;-63
2023/02/17 01:10:49;;;;;;;74.90;42.83;;;9.80;99.90;;;;;;7368596;19;20242;-63
2023/02/17 01:13:17;;;;;;;71.68;41.35;;;9.80;99.90;;;;;;7373899;19;20019;-64
2023/02/17 01:15:47;;;;;;;69.68;41.80;;;9.80;99.90;;;;;;7369083;19;20022;-63
2023/02/17 01:18:17;;;;;;;69.95;41.20;;;9.70;99.90;;;;;;7374516;19;20035;-63
2023/02/17 01:20:44;;;;;;;74.72;44.33;;;9.70;99.90;;;;;;7371226;19;20029;-64
2023/02/17 01:23:11;;;;;;;71.45;43.75;;;9.80;99.90;;;;;;7373663;19;20014;-64
2023/02/17 01:25:38;;;;;;;69.68;43.70;;;9.80;99.90;;;;;;7370132;19;20865;-64
2023/02/17 01:28:06;;;;;;;74.40;45.63;;;9.80;99.90;;;;;;7374951;19;20026;-64
2023/02/17 01:30:32;;;;;;;74.88;45.33;;;9.80;99.90;;;;;;7369214;19;20606;-64
2023/02/17 01:32:59;;;;;;;74.47;44.42;;;9.80;99.90;;;;;;7372797;19;20023;-64
2023/02/17 01:35:25;;;;;;;72.00;43.78;;;9.70;99.90;;;;;;7367878;19;20055;-64
2023/02/17 01:37:52;;;;;;;74.90;43.55;;;9.70;99.90;;;;;;7372280;19;20808;-64
2023/02/17 01:40:18;;;;;;;75.03;46.58;;;9.70;99.90;;;;;;7372709;19;20006;-64
2023/02/17 01:42:45;;;;;;;72.68;46.38;;;9.70;99.90;;;;;;7370965;19;20025;-64
2023/02/17 01:45:17;;;;;;;69.97;43.65;;;9.80;99.90;;;;;;7369043;19;20359;-63
2023/02/17 01:47:53;;;;;;;70.25;44.85;;;9.70;99.90;;;;;;7370783;19;20026;-63
2023/02/17 01:50:23;;;;;;;75.15;45.03;;;9.80;99.90;;;;;;7371664;19;20111;-64
2023/02/17 01:52:53;;;;;;;70.30;42.72;;;9.70;99.90;;;;;;7370761;19;20474;-63
2023/02/17 01:55:21;;;;;;;66.15;41.58;;;9.70;99.90;;;;;;7368058;19;20026;-64
2023/02/17 01:57:50;;;;;;;68.68;43.10;;;9.80;99.90;;;;;;7362225;19;20045;-64
2023/02/17 02:00:19;;;;;;;59.38;41.47;;;9.80;99.90;;;;;;7369350;19;20026;-64
2023/02/17 02:02:48;;;;;;;62.17;40.53;;;9.80;99.90;;;;;;7370901;19;20365;-64
2023/02/17 02:05:16;;;;;;;61.33;41.50;;;9.80;99.90;;;;;;7367014;19;20634;-64
2023/02/17 02:07:46;;;;;;;65.50;40.03;;;9.80;99.90;;;;;;7369673;19;20018;-64
2023/02/17 02:10:16;;;;;;;64.00;41.58;;;9.80;99.90;;;;;;7370041;19;20093;-64
2023/02/17 02:12:42;;;;;;;57.80;43.42;;;9.80;99.90;;;;;;7370587;19;20021;-64
2023/02/17 02:15:12;;;;;;;62.90;43.20;;;9.80;99.90;;;;;;7367268;19;20022;-64
2023/02/17 02:17:59;;;;;;;65.10;42.20;;;9.80;99.90;;;;;;7367846;19;20026;-64
2023/02/17 02:20:40;;;;;;;65.00;42.80;;;9.80;99.90;;;;;;7371127;19;20021;-64
2023/02/17 02:23:12;;;;;;;59.25;40.40;;;9.80;99.90;;;;;;7371691;19;20477;-63
2023/02/17 02:26:06;;;;;;;59.15;42.45;;;9.80;99.90;;;;;;7376553;19;20496;-64
2023/02/17 02:28:59;;;;;;;62.83;42.17;;;9.80;99.90;;;;;;7377159;19;20018;-64
2023/02/17 02:31:35;;;;;;;65.60;42.55;;;9.80;99.90;;;;;;7380215;19;20022;-64
2023/02/17 02:34:16;;;;;;;61.28;43.10;;;9.80;99.90;;;;;;7374387;19;20805;-64
2023/02/17 02:36:45;;;;;;;66.15;44.13;;;9.80;99.90;;;;;;7373984;19;20022;-64
2023/02/17 02:39:16;;;;;;;70.65;47.08;;;9.80;99.90;;;;;;7378571;19;20049;-64
2023/02/17 02:41:49;;;;;;;70.82;45.80;;;9.80;99.90;;;;;;7376870;19;20022;-64
2023/02/17 02:44:19;;;;;;;73.05;45.15;;;9.80;99.90;;;;;;7364805;19;20042;-63
2023/02/17 02:47:06;;;;;;;71.32;46.58;;;9.80;99.90;;;;;;7363768;19;20389;-63
2023/02/17 02:49:35;;;;;;;73.13;49.15;;;9.80;99.90;;;;;;7373560;19;20049;-63
2023/02/17 02:52:21;;;;;;;74.07;49.33;;;9.80;99.90;;;;;;7367090;19;20255;-63
2023/02/17 02:55:10;;;;;;;79.82;50.17;;;9.80;99.90;;;;;;7371420;19;20022;-63
2023/02/17 02:57:57;;;;;;;77.18;49.58;;;9.80;99.90;;;;;;7376136;19;20034;-63
2023/02/17 03:00:52;;;;;;;84.88;49.17;;;9.80;99.90;;;;;;7375606;19;20078;-63
2023/02/17 03:03:47;;;;;;;77.40;48.35;;;9.80;99.90;;;;;;7374645;19;20019;-65
2023/02/17 03:06:27;;;;;;;77.57;47.17;;;9.80;99.90;;;;;;7375889;19;20018;-64
2023/02/17 03:09:24;;;;;;;80.68;50.72;;;9.80;99.90;;;;;;7376028;19;20022;-63
2023/02/17 03:11:51;;;;;;;78.68;48.45;;;9.80;99.90;;;;;;7374186;19;20033;-63
2023/02/17 03:14:22;;;;;;;76.07;48.30;;;9.80;99.90;;;;;;7375860;19;20024;-64
2023/02/17 03:16:50;;;;;;;79.95;50.30;;;9.80;99.90;;;;;;7371786;19;20640;-63
2023/02/17 03:19:20;;;;;;;85.20;49.25;;;9.80;99.90;;;;;;7372304;19;20022;-64
2023/02/17 03:22:13;;;;;;;75.63;49.13;;;9.80;99.90;;;;;;7374872;19;20015;-63
2023/02/17 03:24:39;;;;;;;75.47;47.85;;;9.80;99.90;;;;;;7374600;19;20035;-63
2023/02/17 03:27:08;;;;;;;75.18;48.80;;;9.80;99.90;;;;;;7372182;19;20870;-64
2023/02/17 03:29:34;;;;;;;79.22;48.25;;;9.80;99.90;;;;;;7373524;19;20456;-63
2023/02/17 03:32:01;;;;;;;83.20;49.72;;;9.80;99.90;;;;;;7375661;19;20018;-63
2023/02/17 03:34:28;;;;;;;77.70;49.88;;;9.80;99.90;;;;;;7372391;19;20023;-64
2023/02/17 03:36:55;;;;;;;75.68;47.92;;;9.80;99.90;;;;;;7373266;19;20015;-64
2023/02/17 03:39:21;;;;;;;76.88;51.17;;;9.80;99.90;;;;;;7371549;19;20534;-64
2023/02/17 03:41:50;;;;;;;78.80;49.17;;;9.80;99.90;;;;;;7371846;19;20011;-65
2023/02/17 03:44:17;;;;;;;74.93;45.35;;;9.80;99.90;;;;;;7372465;19;20508;-64
2023/02/17 03:46:44;;;;;;;66.35;43.53;;;9.80;99.90;;;;;;7372152;19;20029;-65
2023/02/17 03:49:10;;;;;;;71.10;43.65;;;9.70;99.90;;;;;;7367711;19;20350;-65
2023/02/17 03:51:37;;;;;;;66.82;43.80;;;9.80;99.90;;;;;;7371643;19;20019;-64
2023/02/17 03:54:04;;;;;;;66.90;43.50;;;9.80;99.90;;;;;;7371460;19;20022;-64
2023/02/17 03:56:31;;;;;;;60.30;42.13;;;9.70;99.90;;;;;;7369424;19;20026;-64
2023/02/17 03:58:57;;;;;;;60.50;41.25;;;9.70;99.90;;;;;;7368343;19;20595;-65
2023/02/17 04:01:24;;;;;;;64.05;42.22;;;9.70;99.90;;;;;;7371028;19;20011;-65
2023/02/17 04:03:55;;;;;;;57.47;38.87;;;9.70;99.90;;;;;;7369142;19;20576;-65
2023/02/17 04:06:21;;;;;;;56.58;36.20;;;9.70;99.90;;;;;;7367467;19;20549;-65
2023/02/17 04:08:48;;;;;;;51.03;36.30;;;9.70;99.90;;;;;;7367256;19;20022;-65
2023/02/17 04:11:14;;;;;;;57.00;36.33;;;9.70;99.90;;;;;;7372100;19;20750;-65
2023/02/17 04:13:41;;;;;;;50.70;36.67;;;9.70;99.90;;;;;;7370260;19;20038;-64
2023/02/17 04:16:08;;;;;;;50.53;33.78;;;9.70;99.90;;;;;;7367961;19;20022;-65
2023/02/17 04:18:35;;;;;;;50.78;34.38;;;9.60;99.90;;;;;;7370099;19;20045;-65
2023/02/17 04:21:02;;;;;;;51.03;35.08;;;9.60;99.90;;;;;;7371083;19;20122;-65
2023/02/17 04:23:37;;;;;;;48.05;31.60;;;9.60;99.90;;;;;;7369694;19;20019;-64
2023/02/17 04:26:05;;;;;;;44.67;32.03;;;9.60;99.90;;;;;;7368159;19;20033;-65
2023/02/17 04:28:32;;;;;;;46.67;31.52;;;9.60;99.90;;;;;;7369549;19;20026;-65
2023/02/17 04:30:59;;;;;;;47.88;29.77;;;9.60;99.90;;;;;;7368770;19;20018;-65
2023/02/17 04:33:26;;;;;;;42.72;28.80;;;9.50;99.90;;;;;;7370251;19;20026;-64
2023/02/17 04:35:58;;;;;;;46.97;30.13;;;9.50;99.90;;;;;;7365573;19;20457;-64
2023/02/17 04:38:29;;;;;;;47.70;30.48;;;9.50;99.90;;;;;;7365870;19;20015;-64
2023/02/17 04:40:56;;;;;;;40.30;29.17;;;9.50;99.90;;;;;;7367668;19;20018;-64
2023/02/17 04:43:24;;;;;;;43.05;27.13;;;9.50;99.90;;;;;;7368199;19;20007;-64
2023/02/17 04:45:51;;;;;;;47.25;30.10;;;9.40;99.90;;;;;;7365899;19;20014;-64
2023/02/17 04:48:18;;;;;;;47.00;30.73;;;9.40;99.90;;;;;;7368110;19;20026;-65
2023/02/17 04:50:45;;;;;;;49.88;32.53;;;9.40;99.90;;;;;;7370100;19;20014;-64
2023/02/17 04:53:12;;;;;;;54.28;33.83;;;9.40;99.90;;;;;;7369494;19;20014;-65
2023/02/17 04:55:39;;;;;;;51.97;33.33;;;9.40;99.90;;;;;;7365158;19;20014;-64
2023/02/17 04:58:07;;;;;;;55.33;34.10;;;9.40;99.90;;;;;;7368478;19;20022;-65
2023/02/17 05:00:34;;;;;;;58.33;34.85;;;9.30;99.90;;;;;;7364743;19;20025;-65
2023/02/17 05:03:00;;;;;;;60.95;35.88;;;9.30;99.90;;;;;;7370676;19;20050;-65
2023/02/17 05:05:26;;;;;;;56.10;35.22;;;9.30;99.90;;;;;;7366470;19;20727;-65
2023/02/17 05:07:53;;;;;;;56.10;35.45;;;9.30;99.90;;;;;;7364703;19;20022;-65
2023/02/17 05:10:19;;;;;;;60.25;37.78;;;9.30;99.90;;;;;;7371079;19;21715;-65
2023/02/17 05:12:46;;;;;;;65.25;37.90;;;9.30;99.90;;;;;;7370378;19;20045;-65
2023/02/17 05:15:12;;;;;;;64.05;35.58;;;9.20;99.90;;;;;;7371202;19;20014;-65
2023/02/17 05:17:39;;;;;;;64.85;40.50;;;9.20;99.90;;;;;;7369835;19;20022;-65
2023/02/17 05:20:06;;;;;;;68.38;36.97;;;9.20;99.90;;;;;;7369354;19;20022;-64
2023/02/17 05:22:32;;;;;;;69.20;40.70;;;9.20;99.90;;;;;;7367950;19;20019;-65
2023/02/17 05:25:00;;;;;;;61.88;36.80;;;9.20;99.90;;;;;;7372334;19;20754;-65
2023/02/17 05:27:31;;;;;;;62.67;36.78;;;9.20;99.90;;;;;;7365550;19;20055;-64
2023/02/17 05:30:00;;;;;;;63.22;37.28;;;9.20;99.90;;;;;;7367636;19;20019;-64
2023/02/17 05:32:26;;;;;;;62.13;36.75;;;9.20;99.90;;;;;;7367036;19;20362;-65
2023/02/17 05:34:53;;;;;;;65.40;38.40;;;9.20;99.90;;;;;;7369539;19;20010;-64
2023/02/17 05:37:21;;;;;;;63.42;37.67;;;9.20;99.90;;;;;;7373071;19;20781;-64
2023/02/17 05:39:50;;;;;;;68.07;40.40;;;9.20;99.90;;;;;;7371717;19;20047;-65
2023/02/17 05:42:17;;;;;;;66.80;39.05;;;9.20;99.90;;;;;;7370907;19;20025;-64
2023/02/17 05:44:43;;;;;;;70.25;38.70;;;9.20;99.90;;;;;;7371326;19;20477;-63
2023/02/17 05:47:12;;;;;;;71.63;41.03;;;9.20;99.90;;;;;;7372594;19;20750;-63
2023/02/17 05:49:38;;;;;;;76.45;42.75;;;9.10;99.90;;;;;;7369729;19;20153;-63
2023/02/17 05:52:05;;;;;;;77.50;43.05;;;9.20;99.90;;;;;;7370513;19;20015;-63
2023/02/17 05:54:31;;;;;;;71.82;38.53;;;9.10;99.90;;;;;;7372119;19;20496;-63
2023/02/17 05:56:57;;;;;;;73.65;43.65;;;9.10;99.90;;;;;;7364992;19;20022;-63
2023/02/17 05:59:26;;;;;;;76.00;42.80;;;9.10;99.90;;;;;;7365256;19;20355;-63
2023/02/17 06:01:53;;;;;;;76.03;43.03;;;9.20;99.90;;;;;;7368868;19;20024;-64
2023/02/17 06:04:19;;;;;;;77.93;41.88;;;9.20;99.90;;;;;;7371064;19;20037;-64
2023/02/17 06:06:45;;;;;;;75.18;42.78;;;9.20;99.90;;;;;;7368805;19;20389;-63
2023/02/17 06:09:12;;;;;;;76.32;42.00;;;9.20;99.90;;;;;;7370629;19;20041;-63
2023/02/17 06:11:39;;;;;;;61.55;33.83;;;9.20;99.90;;;;;;7367643;19;20025;-63
2023/02/17 06:14:05;;;;;;;77.85;41.15;;;9.20;99.90;;;;;;7369291;19;20169;-63
2023/02/17 06:16:32;;;;;;;84.00;41.95;;;9.30;99.90;;;;;;7370159;19;20026;-63
2023/02/17 06:19:01;;;;;;;80.40;41.30;;;9.20;99.90;;;;;;7372703;19;20371;-63
2023/02/17 06:21:29;;;;;;;80.65;42.90;;;9.30;99.90;;;;;;7367312;19;20043;-63
2023/02/17 06:23:55;;;;;;;78.07;42.72;;;9.30;99.90;;;;;;7371254;19;20032;-64
2023/02/17 06:26:22;;;;;;;86.97;42.63;;;9.30;99.90;;;;;;7372747;19;20026;-64
2023/02/17 06:28:49;;;;;;;83.22;42.95;;;9.30;99.90;;;;;;7368815;19;20504;-64
2023/02/17 06:31:25;;;;;;;90.13;43.53;;;9.30;99.90;;;;;;7366684;19;20736;-64
2023/02/17 06:33:52;;;;;;;87.47;43.95;;;9.30;99.90;;;;;;7365588;19;20057;-64
2023/02/17 06:36:18;;;;;;;89.43;45.60;;;9.30;99.90;;;;;;7368371;19;20018;-64
2023/02/17 06:38:44;;;;;;;81.65;40.42;;;9.30;99.90;;;;;;7363732;19;21167;-64
2023/02/17 06:41:11;;;;;;;85.95;44.75;;;9.40;99.90;;;;;;7370120;19;20099;-64
2023/02/17 06:43:37;;;;;;;77.95;41.35;;;9.40;99.90;;;;;;7367934;19;20829;-63
2023/02/17 06:46:04;;;;;;;77.57;41.70;;;9.40;99.90;;;;;;7371980;19;20024;-63
2023/02/17 06:48:31;;;;;;;81.00;40.63;;;9.40;99.90;;;;;;7367588;19;20779;-63
2023/02/17 06:50:59;;;;;;;85.75;42.78;;;9.40;99.90;;;;;;7366545;19;20026;-64
2023/02/17 06:53:26;;;;;;;79.35;40.90;;;9.50;99.90;;;;;;7370269;19;20014;-64
2023/02/17 06:55:52;;;;;;;79.65;40.63;;;9.50;99.90;;;;;;7367850;19;20026;-64
2023/02/17 06:58:19;;;;;;;79.50;40.38;;;9.50;99.90;;;;;;7368670;19;20029;-64
2023/02/17 07:00:45;;;;;;;70.20;40.10;;;9.60;99.90;;;;;;7363500;19;20022;-64
2023/02/17 07:03:11;;;;;;;70.07;38.00;;;9.60;99.90;;;;;;7372167;19;20022;-64
2023/02/17 07:05:39;;;;;;;73.57;39.70;;;9.60;99.90;;;;;;7370003;19;20121;-64
2023/02/17 07:08:05;;;;;;;74.53;38.17;;;9.60;99.90;;;;;;7367896;19;20022;-64
2023/02/17 07:10:32;;;;;;;73.57;38.45;;;9.60;99.90;;;;;;7373067;19;20686;-64
2023/02/17 07:12:59;;;;;;;76.95;39.17;;;9.70;99.90;;;;;;7377360;19;20648;-64
2023/02/17 07:15:25;;;;;;;73.53;38.53;;;9.70;99.90;;;;;;7373646;19;20022;-64
2023/02/17 07:17:52;;;;;;;69.15;39.47;;;9.70;99.90;;;;;;7373748;19;20063;-64
2023/02/17 07:20:18;;;;;;;75.55;40.60;;;9.70;99.90;;;;;;7375628;19;20022;-64
2023/02/17 07:22:44;;;;;;;76.97;39.33;;;9.80;99.90;;;;;;7370759;19;20025;-64
2023/02/17 07:25:11;;;;;;;68.70;39.35;;;9.80;99.90;;;;;;7378734;19;20038;-64
2023/02/17 07:27:38;;;;;;;76.82;39.45;;;9.80;99.90;;;;;;7374610;19;20022;-64
2023/02/17 07:30:05;;;;;;;75.18;37.63;;;9.80;99.90;;;;;;7377184;19;20022;-65
2023/02/17 07:32:32;;;;;;;76.25;37.17;;;9.80;99.90;;;;;;7376546;19;20513;-63
2023/02/17 07:34:58;;;;;;;71.15;38.72;;;9.90;99.90;;;;;;7378042;19;20018;-63
2023/02/17 07:37:25;;;;;;;67.07;38.08;;;9.90;99.90;;;;;;7368614;19;20817;-63
2023/02/17 07:39:51;;;;;;;79.43;40.05;;;9.90;99.90;;;;;;7366669;19;20018;-64
2023/02/17 07:42:17;;;;;;;67.05;37.58;;;9.90;99.90;;;;;;7367493;19;20034;-64
2023/02/17 07:44:46;;;;;;;62.45;34.35;;;10.00;99.90;;;;;;7372472;19;20485;-64
2023/02/17 07:47:15;;;;;;;64.97;38.17;;;9.90;99.90;;;;;;7373906;19;20023;-63
2023/02/17 07:49:50;;;;;;;68.63;37.63;;;9.90;99.90;;;;;;7370973;19;20018;-63
2023/02/17 07:52:17;;;;;;;66.03;37.17;;;10.00;99.90;;;;;;7365476;19;20018;-62
2023/02/17 07:54:44;;;;;;;63.08;35.85;;;10.00;99.90;;;;;;7370956;19;20101;-63
2023/02/17 07:57:10;;;;;;;59.40;35.38;;;10.10;99.90;;;;;;7367908;19;20571;-63
2023/02/17 07:59:39;;;;;;;60.88;36.90;;;10.10;99.90;;;;;;7369464;19;20019;-63
2023/02/17 08:02:06;;;;;;;62.65;36.25;;;10.00;99.90;;;;;;7370904;19;20916;-65
2023/02/17 08:04:32;;;;;;;62.83;36.85;;;10.10;99.90;;;;;;7370895;19;20026;-63
2023/02/17 08:06:59;;;;;;;72.07;35.83;;;10.10;99.90;;;;;;7370191;19;20011;-63
2023/02/17 08:15:08;;;;;;;59.90;37.72;;;10.20;99.90;;;;;;7370058;19;20011;-63
2023/02/17 08:17:34;;;;;;;66.78;37.58;;;10.10;99.90;;;;;;7365906;19;20014;-63
2023/02/17 08:20:05;;;;;;;65.20;37.40;;;10.20;99.90;;;;;;7363664;19;20022;-63
2023/02/17 08:22:32;;;;;;;58.67;38.17;;;10.20;99.90;;;;;;7367916;19;20760;-65
2023/02/17 08:24:58;;;;;;;60.03;36.20;;;10.30;99.90;;;;;;7369704;19;20779;-63
2023/02/17 08:27:25;;;;;;;56.33;34.47;;;10.30;99.90;;;;;;7371971;19;20019;-65
2023/02/17 08:29:52;;;;;;;56.75;35.00;;;10.30;99.90;;;;;;7372776;19;20048;-64
2023/02/17 08:32:18;;;;;;;61.03;35.00;;;10.40;99.90;;;;;;7372692;19;20242;-63
2023/02/17 08:34:45;;;;;;;52.47;35.20;;;10.40;99.90;;;;;;7372443;19;20563;-63
2023/02/17 08:37:11;;;;;;;48.78;34.50;;;10.40;99.90;;;;;;7369733;19;20622;-63
2023/02/17 08:39:37;;;;;;;49.22;33.70;;;10.50;99.90;;;;;;7373592;19;20021;-63
2023/02/17 08:42:04;;;;;;;45.00;31.60;;;10.60;99.90;;;;;;7373049;19;20627;-63
2023/02/17 08:44:34;;;;;;;43.65;31.20;;;10.60;99.90;;;;;;7369642;19;20014;-63
2023/02/17 08:47:01;;;;;;;47.97;31.02;;;10.60;99.90;;;;;;7376104;19;20480;-63
2023/02/17 08:49:30;;;;;;;43.60;30.70;;;10.70;99.90;;;;;;7375921;19;20479;-63
2023/02/17 08:52:03;;;;;;;35.80;27.00;;;10.70;99.90;;;;;;7372471;19;20027;-63
2023/02/17 08:54:30;;;;;;;35.53;26.77;;;10.80;99.90;;;;;;7372635;19;20029;-65
2023/02/17 08:56:57;;;;;;;38.95;27.15;;;10.80;99.90;;;;;;7372432;19;20022;-65
2023/02/17 08:59:23;;;;;;;34.30;25.00;;;10.80;99.90;;;;;;7371268;19;20038;-63
2023/02/17 09:01:50;;;;;;;33.60;26.63;;;10.90;99.90;;;;;;7372298;19;20022;-65
2023/02/17 09:04:17;;;;;;;35.58;27.20;;;10.90;99.90;;;;;;7374120;19;20018;-64
2023/02/17 09:06:49;;;;;;;35.85;25.88;;;10.90;99.90;;;;;;7372657;19;20078;-65
2023/02/17 09:09:16;;;;;;;;;;;11.00;99.90;;;;;;7372185;19;20025;-65
2023/02/17 09:11:43;;;;;;;34.97;24.30;;;11.00;99.90;;;;;;7369364;19;20679;-65
2023/02/17 09:14:10;;;;;;;32.35;22.73;;;11.00;99.90;;;;;;7368976;19;20034;-65
2023/02/17 09:16:41;;;;;;;30.80;24.30;;;11.00;99.90;;;;;;7367436;19;20524;-65
2023/02/17 09:19:07;;;;;;;31.38;22.75;;;11.00;99.90;;;;;;7374702;19;20493;-65
2023/02/17 09:21:35;;;;;;;26.13;20.90;;;11.00;99.90;;;;;;7372483;19;20069;-65
2023/02/17 09:24:05;;;;;;;27.73;19.95;;;11.00;99.90;;;;;;7367852;19;20867;-64
2023/02/17 09:26:33;;;;;;;26.98;19.20;;;11.10;99.90;;;;;;7372177;19;20026;-66
2023/02/17 09:29:02;;;;;;;26.38;19.77;;;11.10;99.90;;;;;;7367735;19;20011;-65
2023/02/17 09:31:30;;;;;;;29.15;19.48;;;11.20;99.90;;;;;;7369613;19;20773;-63
2023/02/17 09:33:57;;;;;;;25.92;18.40;;;11.20;99.90;;;;;;7370683;19;20025;-65
2023/02/17 09:36:26;;;;;;;24.60;18.25;;;11.20;99.90;;;;;;7369732;19;20118;-65
2023/02/17 09:38:53;;;;;;;26.55;17.98;;;11.20;99.90;;;;;;7370300;19;20025;-65
2023/02/17 09:41:39;;;;;;;23.45;16.40;;;11.20;99.90;;;;;;7374543;19;20028;-64
2023/02/17 09:44:31;;;;;;;22.42;17.55;;;11.20;99.90;;;;;;7370067;19;20513;-65
2023/02/17 09:47:15;;;;;;;24.00;16.48;;;11.20;99.90;;;;;;7373892;19;20505;-65
2023/02/17 09:49:49;;;;;;;20.42;15.02;;;11.30;99.90;;;;;;7371549;19;20021;-65
2023/02/17 09:52:28;;;;;;;22.27;15.07;;;11.30;99.90;;;;;;7371998;19;20029;-64
2023/02/17 09:55:09;;;;;;;20.85;13.93;;;11.30;99.90;;;;;;7369664;19;20055;-63
2023/02/17 09:57:52;;;;;;;19.95;14.15;;;11.30;99.90;;;;;;7368104;19;20030;-65
2023/02/17 10:00:32;;;;;;;17.50;13.10;;;11.30;99.90;;;;;;7372881;19;20426;-65
2023/02/17 10:03:15;;;;;;;20.27;13.07;;;11.30;99.90;;;;;;7373012;19;20017;-64
2023/02/17 10:06:01;;;;;;;19.17;13.25;;;11.30;99.90;;;;;;7369388;19;20014;-65
2023/02/17 10:08:33;;;;;;;23.58;14.00;;;11.30;99.90;;;;;;7373914;19;20090;-65
2023/02/17 10:11:12;;;;;;;17.90;13.55;;;11.40;99.90;;;;;;7373690;19;20087;-65
2023/02/17 10:13:43;;;;;;;18.67;12.95;;;11.40;99.90;;;;;;7373695;19;20483;-65
2023/02/17 10:16:19;;;;;;;17.52;12.77;;;11.40;99.90;;;;;;7373793;19;20019;-64
2023/02/17 10:18:59;;;;;;;16.40;12.25;;;11.40;99.90;;;;;;7374258;19;20898;-64
2023/02/17 10:21:32;;;;;;;16.73;12.45;;;11.40;99.90;;;;;;7373811;19;20022;-64
2023/02/17 10:23:59;;;;;;;21.55;12.63;;;11.30;99.90;;;;;;7373259;19;20022;-64
2023/02/17 10:26:44;;;;;;;17.48;13.07;;;11.40;99.90;;;;;;7371965;19;20050;-65
2023/02/17 10:29:20;;;;;;;19.05;13.02;;;11.40;99.90;;;;;;7374808;19;20029;-64
2023/02/17 10:32:04;;;;;;;16.08;12.25;;;11.40;99.90;;;;;;7370206;19;20022;-64
2023/02/17 10:34:35;;;;;;;18.95;12.27;;;11.40;99.90;;;;;;7370337;19;20018;-64
2023/02/17 10:37:13;;;;;;;15.50;12.10;;;11.50;99.90;;;;;;7363213;19;20490;-64
2023/02/17 10:39:42;;;;;;;17.83;12.88;;;11.40;99.90;;;;;;7371369;19;20018;-64
2023/02/17 10:42:21;;;;;;;19.08;12.05;;;11.40;99.90;;;;;;7369532;19;20015;-64
2023/02/17 10:44:49;;;;;;;17.55;11.35;;;11.40;99.90;;;;;;7371124;19;20078;-64
2023/02/17 10:47:18;;;;;;;16.77;11.73;;;11.40;99.90;;;;;;7381448;19;20411;-64
2023/02/17 10:49:48;;;;;;;18.50;11.40;;;11.40;99.90;;;;;;7377550;19;20039;-64
2023/02/17 10:52:16;;;;;;;18.13;12.20;;;11.40;99.90;;;;;;7380883;19;20414;-64
2023/02/17 10:54:58;;;;;;;17.55;9.32;;;11.40;99.90;;;;;;7374845;19;20018;-64
2023/02/17 10:57:31;;;;;;;12.63;8.48;;;11.40;99.90;;;;;;7373492;19;20461;-63
2023/02/17 10:59:57;;;;;;;13.60;8.45;;;11.50;99.90;;;;;;7379174;19;20022;-63
2023/02/17 11:02:41;;;;;;;14.18;7.80;;;11.50;99.90;;;;;;7378328;19;20436;-63
2023/02/17 11:05:07;;;;;;;15.75;8.23;;;11.50;99.90;;;;;;7376075;19;20029;-63
2023/02/17 11:07:38;;;;;;;10.63;7.35;;;11.50;99.90;;;;;;7379463;19;20060;-62
2023/02/17 11:10:21;;;;;;;13.63;7.55;;;11.50;99.90;;;;;;7376634;19;20485;-63
2023/02/17 11:12:49;;;;;;;11.52;7.25;;;11.50;99.90;;;;;;7379318;19;20011;-63
2023/02/17 11:15:19;;;;;;;12.63;6.47;;;11.50;99.90;;;;;;7378204;19;20413;-64
2023/02/17 11:17:47;;;;;;;10.57;6.40;;;11.60;99.90;;;;;;7375245;19;20026;-64
2023/02/17 11:20:14;;;;;;;11.50;6.68;;;11.60;99.90;;;;;;7377603;19;20014;-63
2023/02/17 11:22:44;;;;;;;13.90;6.78;;;11.60;99.90;;;;;;7378404;19;20023;-64
2023/02/17 11:25:29;;;;;;;12.82;6.28;;;11.50;99.90;;;;;;7379169;19;20018;-65
2023/02/17 11:27:58;;;;;;;12.13;6.50;;;11.50;99.90;;;;;;7380395;19;20084;-64
2023/02/17 11:30:27;;;;;;;11.85;6.85;;;11.50;99.90;;;;;;7377281;19;20018;-64
2023/02/17 11:32:55;;;;;;;13.70;6.70;;;11.50;99.90;;;;;;7379469;19;20014;-64
2023/02/17 11:35:42;;;;;;;11.00;6.53;;;11.50;99.90;;;;;;7376372;19;20059;-64
2023/02/17 11:38:13;;;;;;;10.80;6.47;;;11.50;99.90;;;;;;7378059;19;20879;-64
2023/02/17 11:40:52;;;;;;;11.98;6.93;;;11.50;99.90;;;;;;7377931;19;20019;-64
2023/02/17 11:43:19;;;;;;;13.65;7.38;;;11.60;99.90;;;;;;7377997;19;20074;-63
2023/02/17 11:45:59;;;;;;;11.60;6.53;;;11.50;99.90;;;;;;7378191;19;20018;-64
2023/02/17 11:49:07;;;;;;;14.60;6.38;;;11.50;99.90;;;;;;7379292;19;20105;-64
2023/02/17 11:51:33;;;;;;;11.55;7.05;;;11.50;99.90;;;;;;7372047;19;20036;-64
2023/02/17 11:54:21;;;;;;;15.18;6.63;;;11.50;99.90;;;;;;7372893;19;20015;-64
2023/02/17 11:57:06;;;;;;;10.50;6.70;;;11.50;99.90;;;;;;7368128;19;20801;-64
2023/02/17 12:00:00;;;;;;;14.95;6.93;;;11.50;99.90;;;;;;7376081;19;20026;-64
2023/02/17 12:02:54;;;;;;;17.63;6.55;;;11.40;99.90;;;;;;7371595;19;20106;-63
2023/02/17 12:05:36;;;;;;;13.07;5.82;;;11.50;99.90;;;;;;7377490;19;20026;-65
2023/02/17 12:08:22;;;;;;;11.93;6.60;;;11.40;99.90;;;;;;7376947;19;20026;-64
2023/02/17 12:11:16;;;;;;;14.77;6.53;;;11.40;99.90;;;;;;7375626;19;20645;-63
2023/02/17 12:13:50;;;;;;;15.23;6.35;;;11.40;99.90;;;;;;7376542;19;20091;-65
2023/02/17 12:16:16;;;;;;;13.00;6.38;;;11.40;99.90;;;;;;7377866;19;20019;-65
2023/02/17 12:18:54;;;;;;;17.13;6.93;;;11.40;99.90;;;;;;7377289;19;20018;-65
2023/02/17 12:21:41;;;;;;;13.00;6.03;;;11.30;99.90;;;;;;7377498;19;20522;-65
2023/02/17 12:24:13;;;;;;;13.27;6.57;;;11.30;99.90;;;;;;7374996;19;20137;-63
2023/02/17 12:26:48;;;;;;;15.40;7.32;;;11.40;99.90;;;;;;7376131;19;20496;-64
2023/02/17 12:29:24;;;;;;;16.15;6.97;;;11.30;99.90;;;;;;7376084;19;20519;-63
2023/02/17 12:32:15;;;;;;;12.55;7.25;;;11.30;99.90;;;;;;7372523;19;20021;-65
2023/02/17 12:34:58;;;;;;;13.77;7.07;;;11.30;99.90;;;;;;7372777;19;20119;-63
2023/02/17 12:37:37;;;;;;;16.50;6.65;;;11.30;99.90;;;;;;7372136;19;20481;-64
2023/02/17 12:40:42;;;;;;;15.52;6.35;;;11.30;99.90;;;;;;7372603;19;20033;-64
2023/02/17 12:43:51;;;;;;;13.48;6.15;;;11.30;99.90;;;;;;7372594;19;20950;-63
2023/02/17 12:46:31;;;;;;;11.02;6.45;;;11.40;99.90;;;;;;7371894;19;20023;-64
2023/02/17 12:49:19;;;;;;;16.10;7.50;;;11.40;99.90;;;;;;7374879;19;20103;-64
2023/02/17 12:51:53;;;;;;;15.32;6.55;;;11.40;99.90;;;;;;7376452;19;20026;-64
2023/02/17 12:54:42;;;;;;;13.38;6.05;;;11.50;99.90;;;;;;7370232;19;20026;-64
2023/02/17 12:57:44;;;;;;;13.43;6.03;;;11.50;99.90;;;;;;7373751;19;20861;-65
2023/02/17 13:00:43;;;;;;;16.02;7.38;;;11.60;99.90;;;;;;7374079;19;20007;-64
2023/02/17 13:03:10;;;;;;;10.13;5.93;;;11.60;99.90;;;;;;7364511;19;20041;-64